Patricia Anne — WDF9428 — position and weather

sailwx.info

Track history (hours):
 
Tides and Currents Weather Stations Pressure Air Temp Water Temp Dewpoint Dewpoint Depression Visibility Wind Speed Wind Dir Waves Ship Positions

Patricia Anne

Owner: Genesis Marine, LLC, Houston, TX. More information available from US FCC via Universal Licensing System and Coast Guard Vessel Documentation Center.

Last reported at 2017-Oct-18 05:44 UTC. Time now 2017-Oct-19 00:02 UTC.
Position N 29°33' W 090°24'.

Length 26 m; draft 3 m.

Type: Towing. MMSI: 367505060.

Date/timePositionNaut miles runAvg speedWind from/ knotsBaromVisibWave heightAir tempDewpointWater temp
2017-Oct-18 05:44N 29°33' W 090°24'1 2.0
2017-Oct-18 05:27N 29°33' W 090°25'2 3.6
2017-Oct-18 04:59N 29°33' W 090°27'2 4.5
2017-Oct-18 04:30N 29°34' W 090°29'2 3.5
2017-Oct-18 04:00N 29°34' W 090°32'2 3.9
2017-Oct-18 03:30N 29°34' W 090°34'1 1.1
2017-Oct-18 03:00N 29°34' W 090°34'1 2.1
2017-Oct-18 02:30N 29°35' W 090°35'2 4.1
2017-Oct-18 02:01N 29°35' W 090°38'2 3.7
2017-Oct-18 01:30N 29°36' W 090°39'2 3.6
2017-Oct-18 01:01N 29°37' W 090°41'1 2.5
2017-Oct-18 00:31N 29°36' W 090°43'2 3.8
2017-Oct-18 00:01N 29°34' W 090°43'1 2.0
2017-Oct-17 23:30N 29°34' W 090°44'2 3.4
2017-Oct-17 23:00N 29°32' W 090°46'2 4.3
2017-Oct-17 22:30N 29°32' W 090°48'3 4.9
2017-Oct-17 21:57N 29°32' W 090°51'2 4.8
2017-Oct-17 21:30N 29°33' W 090°54'5 4.8
2017-Oct-17 20:33N 29°35' W 090°58'55 3.5
2017-Oct-17 04:49N 29°50' W 091°59'2 4.9
2017-Oct-17 04:30N 29°49' W 092°01'2 4.8
2017-Oct-17 04:00N 29°49' W 092°03'2 4.2
2017-Oct-17 03:31N 29°48' W 092°06'2 4.8
2017-Oct-17 03:00N 29°47' W 092°08'2 4.7
2017-Oct-17 02:30N 29°47' W 092°11'2 4.8
2017-Oct-17 02:00N 29°48' W 092°14'1 1.0
2017-Oct-17 01:30N 29°48' W 092°14'0 0.0
2017-Oct-17 01:00N 29°48' W 092°14'2 3.2
2017-Oct-17 00:30N 29°48' W 092°16'2 4.0
2017-Oct-17 00:00N 29°50' W 092°18'1 2.8
2017-Oct-16 23:30N 29°50' W 092°19'2 3.5
2017-Oct-16 23:00N 29°51' W 092°21'41 4.1
2017-Oct-16 12:54N 29°56' W 093°08'0 0.3
2017-Oct-16 12:13N 29°56' W 093°08'1 3.5
2017-Oct-16 12:00N 29°56' W 093°09'2 3.4
2017-Oct-16 11:30N 29°57' W 093°11'2 3.9
2017-Oct-16 11:00N 29°59' W 093°12'2 3.9
2017-Oct-16 10:30N 30°00' W 093°14'1 2.9
2017-Oct-16 10:01N 30°02' W 093°14'1 1.7
2017-Oct-16 09:31N 30°02' W 093°15'1 2.8
2017-Oct-16 09:01N 30°03' W 093°16'2 3.6
2017-Oct-16 08:30N 30°05' W 093°17'1 2.6
2017-Oct-16 08:00N 30°06' W 093°18'1 1.2
2017-Oct-16 07:31N 30°06' W 093°18'1 2.6
2017-Oct-16 07:01N 30°05' W 093°20'2 3.7
2017-Oct-16 06:31N 30°04' W 093°21'2 3.4
2017-Oct-16 06:01N 30°04' W 093°23'2 4.2
2017-Oct-16 05:31N 30°04' W 093°25'2 4.3
2017-Oct-16 05:01N 30°04' W 093°28'2 4.3
2017-Oct-16 04:31N 30°04' W 093°30'2 4.1
2017-Oct-16 03:59N 30°04' W 093°33'2 3.9
2017-Oct-16 03:30N 30°04' W 093°35'2 3.9
2017-Oct-16 03:00N 30°04' W 093°37'2 3.9
2017-Oct-16 02:29N 30°03' W 093°39'  
2017-Oct-13 20:47N 30°04' W 093°41'2 6.2
2017-Oct-13 20:30N 30°04' W 093°39'4 5.8
2017-Oct-13 19:49N 30°04' W 093°34'2 5.7
2017-Oct-13 19:31N 30°04' W 093°32'3 5.7
2017-Oct-13 19:00N 30°04' W 093°29'3 5.6
2017-Oct-13 18:30N 30°04' W 093°25'3 5.6
2017-Oct-13 18:00N 30°04' W 093°22'3 5.5
2017-Oct-13 17:30N 30°05' W 093°20'2 3.2
2017-Oct-13 17:00N 30°05' W 093°18'1 2.6
2017-Oct-13 16:30N 30°05' W 093°17'2 3.9
2017-Oct-13 16:00N 30°03' W 093°16'3 5.2
2017-Oct-13 15:31N 30°01' W 093°14'2 3.1
2017-Oct-13 15:00N 29°59' W 093°13'1 2.6
2017-Oct-13 14:30N 29°59' W 093°12'3 5.8
2017-Oct-13 14:01N 29°56' W 093°10'2 3.8
2017-Oct-13 13:30N 29°56' W 093°08'1 2.2
2017-Oct-13 13:01N 29°56' W 093°06'2 4.4
2017-Oct-13 12:30N 29°56' W 093°04'3 5.4
2017-Oct-13 12:00N 29°56' W 093°01'3 5.0
2017-Oct-13 11:28N 29°56' W 092°57'31 5.1
2017-Oct-13 05:21N 29°51' W 092°22'1 3.4
2017-Oct-13 05:01N 29°51' W 092°21'0 0.1
2017-Oct-13 04:30N 29°51' W 092°21'0 0.0
2017-Oct-13 03:59N 29°51' W 092°21'0 0.1
2017-Oct-13 03:30N 29°51' W 092°21'2 3.6
2017-Oct-13 03:00N 29°50' W 092°19'2 4.5
2017-Oct-13 02:30N 29°49' W 092°17'3 5.0
2017-Oct-13 02:01N 29°48' W 092°14'2 3.3
2017-Oct-13 01:30N 29°47' W 092°12'1 1.8
2017-Oct-13 01:01N 29°47' W 092°11'0 0.7
2017-Oct-13 00:31N 29°47' W 092°11'1 2.1
2017-Oct-13 00:01N 29°47' W 092°10'2 3.1
2017-Oct-12 23:31N 29°47' W 092°08'2 4.8
2017-Oct-12 23:00N 29°48' W 092°05'3 5.1
2017-Oct-12 22:29N 29°49' W 092°03'3 5.5
2017-Oct-12 22:00N 29°50' W 091°60'55 4.1
2017-Oct-12 08:33N 29°36' W 090°58'0 5.6
2017-Oct-12 08:30N 29°35' W 090°58'3 5.6
2017-Oct-12 07:57N 29°34' W 090°55'3 6.2
2017-Oct-12 07:30N 29°32' W 090°52'2 3.9
2017-Oct-12 07:00N 29°32' W 090°50'3 5.9
2017-Oct-12 06:30N 29°32' W 090°47'2 4.9
2017-Oct-12 06:00N 29°34' W 090°45'2 3.8
2017-Oct-12 05:30N 29°35' W 090°43'2 4.3
2017-Oct-12 05:00N 29°37' W 090°42'2 4.8
2017-Oct-12 04:30N 29°36' W 090°39'3 5.3
2017-Oct-12 04:00N 29°35' W 090°37'2 5.0
2017-Oct-12 03:30N 29°34' W 090°34'3 5.1
2017-Oct-12 03:00N 29°34' W 090°31'2 3.2
2017-Oct-12 02:30N 29°34' W 090°29'1 2.0
2017-Oct-12 02:00N 29°33' W 090°28'2 3.0
2017-Oct-12 01:26N 29°33' W 090°26'  
Track history (hours):
 
Tides and Currents Weather Stations Pressure Air Temp Water Temp Dewpoint Dewpoint Depression Visibility Wind Speed Wind Dir Waves Ship Positions

Patricia Anne

Owner: Genesis Marine, LLC, Houston, TX. More information available from US FCC via Universal Licensing System and Coast Guard Vessel Documentation Center.

Last reported at 2017-Oct-18 05:44 UTC. Time now 2017-Oct-19 00:02 UTC.
Position N 29°33' W 090°24'.

Length 26 m; draft 3 m.

Type: Towing. MMSI: 367505060.

Date/timePositionNaut miles runAvg speedWind from/ knotsBaromVisibWave heightAir tempDewpointWater temp
2017-Oct-18 05:44N 29°33' W 090°24'1 2.0
2017-Oct-18 05:27N 29°33' W 090°25'2 3.6
2017-Oct-18 04:59N 29°33' W 090°27'2 4.5
2017-Oct-18 04:30N 29°34' W 090°29'2 3.5
2017-Oct-18 04:00N 29°34' W 090°32'2 3.9
2017-Oct-18 03:30N 29°34' W 090°34'1 1.1
2017-Oct-18 03:00N 29°34' W 090°34'1 2.1
2017-Oct-18 02:30N 29°35' W 090°35'2 4.1
2017-Oct-18 02:01N 29°35' W 090°38'2 3.7
2017-Oct-18 01:30N 29°36' W 090°39'2 3.6
2017-Oct-18 01:01N 29°37' W 090°41'1 2.5
2017-Oct-18 00:31N 29°36' W 090°43'2 3.8
2017-Oct-18 00:01N 29°34' W 090°43'1 2.0
2017-Oct-17 23:30N 29°34' W 090°44'2 3.4
2017-Oct-17 23:00N 29°32' W 090°46'2 4.3
2017-Oct-17 22:30N 29°32' W 090°48'3 4.9
2017-Oct-17 21:57N 29°32' W 090°51'2 4.8
2017-Oct-17 21:30N 29°33' W 090°54'5 4.8
2017-Oct-17 20:33N 29°35' W 090°58'55 3.5
2017-Oct-17 04:49N 29°50' W 091°59'2 4.9
2017-Oct-17 04:30N 29°49' W 092°01'2 4.8
2017-Oct-17 04:00N 29°49' W 092°03'2 4.2
2017-Oct-17 03:31N 29°48' W 092°06'2 4.8
2017-Oct-17 03:00N 29°47' W 092°08'2 4.7
2017-Oct-17 02:30N 29°47' W 092°11'2 4.8
2017-Oct-17 02:00N 29°48' W 092°14'1 1.0
2017-Oct-17 01:30N 29°48' W 092°14'0 0.0
2017-Oct-17 01:00N 29°48' W 092°14'2 3.2
2017-Oct-17 00:30N 29°48' W 092°16'2 4.0
2017-Oct-17 00:00N 29°50' W 092°18'1 2.8
2017-Oct-16 23:30N 29°50' W 092°19'2 3.5
2017-Oct-16 23:00N 29°51' W 092°21'41 4.1
2017-Oct-16 12:54N 29°56' W 093°08'0 0.3
2017-Oct-16 12:13N 29°56' W 093°08'1 3.5
2017-Oct-16 12:00N 29°56' W 093°09'2 3.4
2017-Oct-16 11:30N 29°57' W 093°11'2 3.9
2017-Oct-16 11:00N 29°59' W 093°12'2 3.9
2017-Oct-16 10:30N 30°00' W 093°14'1 2.9
2017-Oct-16 10:01N 30°02' W 093°14'1 1.7
2017-Oct-16 09:31N 30°02' W 093°15'1 2.8
2017-Oct-16 09:01N 30°03' W 093°16'2 3.6
2017-Oct-16 08:30N 30°05' W 093°17'1 2.6
2017-Oct-16 08:00N 30°06' W 093°18'1 1.2
2017-Oct-16 07:31N 30°06' W 093°18'1 2.6
2017-Oct-16 07:01N 30°05' W 093°20'2 3.7
2017-Oct-16 06:31N 30°04' W 093°21'2 3.4
2017-Oct-16 06:01N 30°04' W 093°23'2 4.2
2017-Oct-16 05:31N 30°04' W 093°25'2 4.3
2017-Oct-16 05:01N 30°04' W 093°28'2 4.3
2017-Oct-16 04:31N 30°04' W 093°30'2 4.1
2017-Oct-16 03:59N 30°04' W 093°33'2 3.9
2017-Oct-16 03:30N 30°04' W 093°35'2 3.9
2017-Oct-16 03:00N 30°04' W 093°37'2 3.9
2017-Oct-16 02:29N 30°03' W 093°39'  
2017-Oct-13 20:47N 30°04' W 093°41'2 6.2
2017-Oct-13 20:30N 30°04' W 093°39'4 5.8
2017-Oct-13 19:49N 30°04' W 093°34'2 5.7
2017-Oct-13 19:31N 30°04' W 093°32'3 5.7
2017-Oct-13 19:00N 30°04' W 093°29'3 5.6
2017-Oct-13 18:30N 30°04' W 093°25'3 5.6
2017-Oct-13 18:00N 30°04' W 093°22'3 5.5
2017-Oct-13 17:30N 30°05' W 093°20'2 3.2
2017-Oct-13 17:00N 30°05' W 093°18'1 2.6
2017-Oct-13 16:30N 30°05' W 093°17'2 3.9
2017-Oct-13 16:00N 30°03' W 093°16'3 5.2
2017-Oct-13 15:31N 30°01' W 093°14'2 3.1
2017-Oct-13 15:00N 29°59' W 093°13'1 2.6
2017-Oct-13 14:30N 29°59' W 093°12'3 5.8
2017-Oct-13 14:01N 29°56' W 093°10'2 3.8
2017-Oct-13 13:30N 29°56' W 093°08'1 2.2
2017-Oct-13 13:01N 29°56' W 093°06'2 4.4
2017-Oct-13 12:30N 29°56' W 093°04'3 5.4
2017-Oct-13 12:00N 29°56' W 093°01'3 5.0
2017-Oct-13 11:28N 29°56' W 092°57'31 5.1
2017-Oct-13 05:21N 29°51' W 092°22'1 3.4
2017-Oct-13 05:01N 29°51' W 092°21'0 0.1
2017-Oct-13 04:30N 29°51' W 092°21'0 0.0
2017-Oct-13 03:59N 29°51' W 092°21'0 0.1
2017-Oct-13 03:30N 29°51' W 092°21'2 3.6
2017-Oct-13 03:00N 29°50' W 092°19'2 4.5
2017-Oct-13 02:30N 29°49' W 092°17'3 5.0
2017-Oct-13 02:01N 29°48' W 092°14'2 3.3
2017-Oct-13 01:30N 29°47' W 092°12'1 1.8
2017-Oct-13 01:01N 29°47' W 092°11'0 0.7
2017-Oct-13 00:31N 29°47' W 092°11'1 2.1
2017-Oct-13 00:01N 29°47' W 092°10'2 3.1
2017-Oct-12 23:31N 29°47' W 092°08'2 4.8
2017-Oct-12 23:00N 29°48' W 092°05'3 5.1
2017-Oct-12 22:29N 29°49' W 092°03'3 5.5
2017-Oct-12 22:00N 29°50' W 091°60'55 4.1
2017-Oct-12 08:33N 29°36' W 090°58'0 5.6
2017-Oct-12 08:30N 29°35' W 090°58'3 5.6
2017-Oct-12 07:57N 29°34' W 090°55'3 6.2
2017-Oct-12 07:30N 29°32' W 090°52'2 3.9
2017-Oct-12 07:00N 29°32' W 090°50'3 5.9
2017-Oct-12 06:30N 29°32' W 090°47'2 4.9
2017-Oct-12 06:00N 29°34' W 090°45'2 3.8
2017-Oct-12 05:30N 29°35' W 090°43'2 4.3
2017-Oct-12 05:00N 29°37' W 090°42'2 4.8
2017-Oct-12 04:30N 29°36' W 090°39'3 5.3
2017-Oct-12 04:00N 29°35' W 090°37'2 5.0
2017-Oct-12 03:30N 29°34' W 090°34'3 5.1
2017-Oct-12 03:00N 29°34' W 090°31'2 3.2
2017-Oct-12 02:30N 29°34' W 090°29'1 2.0
2017-Oct-12 02:00N 29°33' W 090°28'2 3.0
2017-Oct-12 01:26N 29°33' W 090°26'  

Dump ship's entire track history